sensor_id;sensor_type;location;lat;lon;timestamp;P1;durP1;ratioP1;P2;durP2;ratioP2
41677;SDS011;27364;49.026;8.712;2022-08-19T00:00:32;13.07;;;10.85;;
41677;SDS011;27364;49.026;8.712;2022-08-19T00:02:57;15.02;;;11.27;;
41677;SDS011;27364;49.026;8.712;2022-08-19T00:05:23;14.43;;;11.32;;
41677;SDS011;27364;49.026;8.712;2022-08-19T00:07:49;15.25;;;11.30;;
41677;SDS011;27364;49.026;8.712;2022-08-19T00:10:15;14.30;;;11.57;;
41677;SDS011;27364;49.026;8.712;2022-08-19T00:12:42;14.98;;;11.70;;
41677;SDS011;27364;49.026;8.712;2022-08-19T00:15:08;15.32;;;11.07;;
41677;SDS011;27364;49.026;8.712;2022-08-19T00:17:41;13.90;;;11.43;;
41677;SDS011;27364;49.026;8.712;2022-08-19T00:20:09;15.32;;;11.25;;
41677;SDS011;27364;49.026;8.712;2022-08-19T00:22:36;14.38;;;11.70;;
41677;SDS011;27364;49.026;8.712;2022-08-19T00:25:03;14.35;;;11.35;;
41677;SDS011;27364;49.026;8.712;2022-08-19T00:27:29;15.25;;;11.88;;
41677;SDS011;27364;49.026;8.712;2022-08-19T00:29:55;13.55;;;11.00;;
41677;SDS011;27364;49.026;8.712;2022-08-19T00:32:21;15.23;;;11.45;;
41677;SDS011;27364;49.026;8.712;2022-08-19T00:34:47;14.07;;;11.50;;
41677;SDS011;27364;49.026;8.712;2022-08-19T00:37:12;13.95;;;11.60;;
41677;SDS011;27364;49.026;8.712;2022-08-19T00:39:38;16.75;;;12.77;;
41677;SDS011;27364;49.026;8.712;2022-08-19T00:42:03;15.68;;;12.95;;
41677;SDS011;27364;49.026;8.712;2022-08-19T00:44:31;15.07;;;12.60;;
41677;SDS011;27364;49.026;8.712;2022-08-19T00:46:57;15.80;;;12.70;;
41677;SDS011;27364;49.026;8.712;2022-08-19T00:51:58;16.67;;;12.82;;
41677;SDS011;27364;49.026;8.712;2022-08-19T00:54:29;17.63;;;13.43;;
41677;SDS011;27364;49.026;8.712;2022-08-19T00:56:56;17.75;;;12.77;;
41677;SDS011;27364;49.026;8.712;2022-08-19T00:59:22;16.50;;;13.40;;
41677;SDS011;27364;49.026;8.712;2022-08-19T01:01:49;17.08;;;13.93;;
41677;SDS011;27364;49.026;8.712;2022-08-19T01:04:15;18.23;;;14.00;;
41677;SDS011;27364;49.026;8.712;2022-08-19T01:06:40;16.45;;;13.70;;
41677;SDS011;27364;49.026;8.712;2022-08-19T01:09:07;19.17;;;14.32;;
41677;SDS011;27364;49.026;8.712;2022-08-19T01:11:34;17.17;;;13.63;;
41677;SDS011;27364;49.026;8.712;2022-08-19T01:14:05;16.48;;;13.45;;
41677;SDS011;27364;49.026;8.712;2022-08-19T01:16:31;17.50;;;14.23;;
41677;SDS011;27364;49.026;8.712;2022-08-19T01:18:58;17.67;;;14.37;;
41677;SDS011;27364;49.026;8.712;2022-08-19T01:21:26;15.60;;;13.65;;
41677;SDS011;27364;49.026;8.712;2022-08-19T01:23:57;17.00;;;13.70;;
41677;SDS011;27364;49.026;8.712;2022-08-19T01:26:24;16.05;;;13.43;;
41677;SDS011;27364;49.026;8.712;2022-08-19T01:28:51;17.85;;;14.65;;
41677;SDS011;27364;49.026;8.712;2022-08-19T01:31:21;16.92;;;14.02;;
41677;SDS011;27364;49.026;8.712;2022-08-19T01:33:49;18.50;;;13.68;;
41677;SDS011;27364;49.026;8.712;2022-08-19T01:36:24;19.23;;;15.00;;
41677;SDS011;27364;49.026;8.712;2022-08-19T01:38:58;18.88;;;15.10;;
41677;SDS011;27364;49.026;8.712;2022-08-19T01:41:25;18.92;;;14.57;;
41677;SDS011;27364;49.026;8.712;2022-08-19T01:43:51;17.73;;;14.25;;
41677;SDS011;27364;49.026;8.712;2022-08-19T01:46:18;17.07;;;13.60;;
41677;SDS011;27364;49.026;8.712;2022-08-19T01:48:44;18.63;;;14.85;;
41677;SDS011;27364;49.026;8.712;2022-08-19T01:51:11;15.82;;;13.18;;
41677;SDS011;27364;49.026;8.712;2022-08-19T01:53:37;18.35;;;14.40;;
41677;SDS011;27364;49.026;8.712;2022-08-19T01:56:03;18.58;;;15.07;;
41677;SDS011;27364;49.026;8.712;2022-08-19T01:58:31;18.70;;;14.18;;
41677;SDS011;27364;49.026;8.712;2022-08-19T02:01:01;17.67;;;14.63;;
41677;SDS011;27364;49.026;8.712;2022-08-19T02:03:26;17.73;;;14.23;;
41677;SDS011;27364;49.026;8.712;2022-08-19T02:05:54;16.83;;;13.85;;
41677;SDS011;27364;49.026;8.712;2022-08-19T02:08:22;17.17;;;13.93;;
41677;SDS011;27364;49.026;8.712;2022-08-19T02:10:48;19.50;;;14.38;;
41677;SDS011;27364;49.026;8.712;2022-08-19T02:13:14;16.98;;;13.60;;
41677;SDS011;27364;49.026;8.712;2022-08-19T02:15:42;16.95;;;14.13;;
41677;SDS011;27364;49.026;8.712;2022-08-19T02:18:08;20.00;;;14.70;;
41677;SDS011;27364;49.026;8.712;2022-08-19T02:20:34;17.23;;;14.63;;
41677;SDS011;27364;49.026;8.712;2022-08-19T02:23:00;18.77;;;15.00;;
41677;SDS011;27364;49.026;8.712;2022-08-19T02:25:26;18.23;;;14.73;;
41677;SDS011;27364;49.026;8.712;2022-08-19T02:27:52;17.95;;;15.25;;
41677;SDS011;27364;49.026;8.712;2022-08-19T02:30:19;19.05;;;14.55;;
41677;SDS011;27364;49.026;8.712;2022-08-19T02:32:45;18.55;;;15.10;;
41677;SDS011;27364;49.026;8.712;2022-08-19T02:35:11;18.40;;;14.57;;
41677;SDS011;27364;49.026;8.712;2022-08-19T02:37:38;18.50;;;14.93;;
41677;SDS011;27364;49.026;8.712;2022-08-19T02:40:24;17.58;;;14.68;;
41677;SDS011;27364;49.026;8.712;2022-08-19T02:42:49;17.65;;;14.40;;
41677;SDS011;27364;49.026;8.712;2022-08-19T02:45:15;17.50;;;14.98;;
41677;SDS011;27364;49.026;8.712;2022-08-19T02:47:41;19.85;;;15.73;;
41677;SDS011;27364;49.026;8.712;2022-08-19T02:50:07;18.63;;;14.88;;
41677;SDS011;27364;49.026;8.712;2022-08-19T02:52:34;18.52;;;15.15;;
41677;SDS011;27364;49.026;8.712;2022-08-19T02:55:00;21.38;;;15.27;;
41677;SDS011;27364;49.026;8.712;2022-08-19T02:57:26;18.17;;;15.23;;
41677;SDS011;27364;49.026;8.712;2022-08-19T02:59:52;16.85;;;14.70;;
41677;SDS011;27364;49.026;8.712;2022-08-19T03:02:19;18.45;;;15.45;;
41677;SDS011;27364;49.026;8.712;2022-08-19T03:04:44;17.48;;;14.48;;
41677;SDS011;27364;49.026;8.712;2022-08-19T03:07:12;18.05;;;15.07;;
41677;SDS011;27364;49.026;8.712;2022-08-19T03:09:39;20.17;;;15.63;;
41677;SDS011;27364;49.026;8.712;2022-08-19T03:12:05;19.50;;;15.68;;
41677;SDS011;27364;49.026;8.712;2022-08-19T03:14:31;18.30;;;15.70;;
41677;SDS011;27364;49.026;8.712;2022-08-19T03:16:57;18.60;;;15.85;;
41677;SDS011;27364;49.026;8.712;2022-08-19T03:19:23;21.15;;;15.75;;
41677;SDS011;27364;49.026;8.712;2022-08-19T03:21:49;18.27;;;15.80;;
41677;SDS011;27364;49.026;8.712;2022-08-19T03:24:16;19.23;;;16.50;;
41677;SDS011;27364;49.026;8.712;2022-08-19T03:26:44;19.17;;;15.82;;
41677;SDS011;27364;49.026;8.712;2022-08-19T03:29:12;17.92;;;15.77;;
41677;SDS011;27364;49.026;8.712;2022-08-19T03:31:39;17.92;;;15.25;;
41677;SDS011;27364;49.026;8.712;2022-08-19T03:34:06;20.67;;;15.55;;
41677;SDS011;27364;49.026;8.712;2022-08-19T03:36:31;19.35;;;16.52;;
41677;SDS011;27364;49.026;8.712;2022-08-19T03:38:58;17.65;;;15.55;;
41677;SDS011;27364;49.026;8.712;2022-08-19T03:41:31;18.15;;;14.88;;
41677;SDS011;27364;49.026;8.712;2022-08-19T03:44:01;18.20;;;15.82;;
41677;SDS011;27364;49.026;8.712;2022-08-19T03:46:28;17.95;;;15.43;;
41677;SDS011;27364;49.026;8.712;2022-08-19T03:48:56;22.95;;;15.25;;
41677;SDS011;27364;49.026;8.712;2022-08-19T03:51:25;20.27;;;15.93;;
41677;SDS011;27364;49.026;8.712;2022-08-19T03:53:52;19.33;;;15.38;;
41677;SDS011;27364;49.026;8.712;2022-08-19T03:56:19;20.90;;;16.33;;
41677;SDS011;27364;49.026;8.712;2022-08-19T03:58:45;18.85;;;15.80;;
41677;SDS011;27364;49.026;8.712;2022-08-19T04:01:14;18.63;;;15.50;;
41677;SDS011;27364;49.026;8.712;2022-08-19T04:03:42;18.70;;;15.20;;
41677;SDS011;27364;49.026;8.712;2022-08-19T04:08:46;18.98;;;15.07;;
41677;SDS011;27364;49.026;8.712;2022-08-19T04:11:16;18.70;;;16.02;;
41677;SDS011;27364;49.026;8.712;2022-08-19T04:13:46;17.60;;;15.73;;
41677;SDS011;27364;49.026;8.712;2022-08-19T04:16:12;17.90;;;15.85;;
41677;SDS011;27364;49.026;8.712;2022-08-19T04:18:38;20.42;;;16.50;;
41677;SDS011;27364;49.026;8.712;2022-08-19T04:21:05;20.10;;;16.40;;
41677;SDS011;27364;49.026;8.712;2022-08-19T04:23:32;20.85;;;16.60;;
41677;SDS011;27364;49.026;8.712;2022-08-19T04:26:01;19.50;;;16.38;;
41677;SDS011;27364;49.026;8.712;2022-08-19T04:28:26;18.48;;;15.82;;
41677;SDS011;27364;49.026;8.712;2022-08-19T04:30:53;18.50;;;16.00;;
41677;SDS011;27364;49.026;8.712;2022-08-19T04:33:21;18.85;;;16.33;;
41677;SDS011;27364;49.026;8.712;2022-08-19T04:35:49;19.60;;;15.40;;
41677;SDS011;27364;49.026;8.712;2022-08-19T04:38:17;17.90;;;15.77;;
41677;SDS011;27364;49.026;8.712;2022-08-19T04:40:47;19.92;;;16.30;;
41677;SDS011;27364;49.026;8.712;2022-08-19T04:43:34;21.77;;;16.83;;
41677;SDS011;27364;49.026;8.712;2022-08-19T04:46:11;18.73;;;16.05;;
41677;SDS011;27364;49.026;8.712;2022-08-19T04:48:37;19.88;;;16.55;;
41677;SDS011;27364;49.026;8.712;2022-08-19T04:51:09;19.73;;;16.98;;
41677;SDS011;27364;49.026;8.712;2022-08-19T04:53:36;21.30;;;16.33;;
41677;SDS011;27364;49.026;8.712;2022-08-19T04:58:32;18.88;;;16.40;;
41677;SDS011;27364;49.026;8.712;2022-08-19T05:00:58;19.17;;;17.10;;
41677;SDS011;27364;49.026;8.712;2022-08-19T05:03:24;19.75;;;16.90;;
41677;SDS011;27364;49.026;8.712;2022-08-19T05:05:50;20.63;;;17.00;;
41677;SDS011;27364;49.026;8.712;2022-08-19T05:08:17;18.63;;;16.65;;
41677;SDS011;27364;49.026;8.712;2022-08-19T05:10:46;19.38;;;16.30;;
41677;SDS011;27364;49.026;8.712;2022-08-19T05:15:39;22.27;;;16.58;;
41677;SDS011;27364;49.026;8.712;2022-08-19T05:18:05;20.60;;;16.08;;
41677;SDS011;27364;49.026;8.712;2022-08-19T05:20:49;20.38;;;16.13;;
41677;SDS011;27364;49.026;8.712;2022-08-19T05:23:33;18.55;;;15.43;;
41677;SDS011;27364;49.026;8.712;2022-08-19T05:25:59;19.55;;;16.58;;
41677;SDS011;27364;49.026;8.712;2022-08-19T05:28:24;19.80;;;15.73;;
41677;SDS011;27364;49.026;8.712;2022-08-19T05:30:50;20.70;;;16.13;;
41677;SDS011;27364;49.026;8.712;2022-08-19T05:33:16;19.40;;;16.02;;
41677;SDS011;27364;49.026;8.712;2022-08-19T05:35:42;17.70;;;15.20;;
41677;SDS011;27364;49.026;8.712;2022-08-19T05:38:09;19.92;;;15.77;;
41677;SDS011;27364;49.026;8.712;2022-08-19T05:40:36;18.35;;;15.25;;
41677;SDS011;27364;49.026;8.712;2022-08-19T05:43:03;20.25;;;15.43;;
41677;SDS011;27364;49.026;8.712;2022-08-19T05:45:30;17.63;;;14.75;;
41677;SDS011;27364;49.026;8.712;2022-08-19T05:47:56;16.73;;;14.73;;
41677;SDS011;27364;49.026;8.712;2022-08-19T05:50:23;16.77;;;14.47;;
41677;SDS011;27364;49.026;8.712;2022-08-19T05:52:50;17.27;;;14.50;;
41677;SDS011;27364;49.026;8.712;2022-08-19T05:55:16;18.27;;;14.57;;
41677;SDS011;27364;49.026;8.712;2022-08-19T05:57:41;18.27;;;14.85;;
41677;SDS011;27364;49.026;8.712;2022-08-19T06:00:07;17.45;;;14.75;;
41677;SDS011;27364;49.026;8.712;2022-08-19T06:02:35;16.73;;;14.85;;
41677;SDS011;27364;49.026;8.712;2022-08-19T06:05:02;17.33;;;14.15;;
41677;SDS011;27364;49.026;8.712;2022-08-19T06:07:29;18.77;;;14.57;;
41677;SDS011;27364;49.026;8.712;2022-08-19T06:09:54;18.25;;;15.00;;
41677;SDS011;27364;49.026;8.712;2022-08-19T06:12:20;19.23;;;14.82;;
41677;SDS011;27364;49.026;8.712;2022-08-19T06:14:55;15.32;;;13.50;;
41677;SDS011;27364;49.026;8.712;2022-08-19T06:17:21;16.98;;;15.15;;
41677;SDS011;27364;49.026;8.712;2022-08-19T06:19:50;17.35;;;14.25;;
41677;SDS011;27364;49.026;8.712;2022-08-19T06:22:15;16.70;;;14.27;;
41677;SDS011;27364;49.026;8.712;2022-08-19T06:24:41;17.58;;;13.43;;
41677;SDS011;27364;49.026;8.712;2022-08-19T06:27:07;17.65;;;14.38;;
41677;SDS011;27364;49.026;8.712;2022-08-19T06:29:36;16.60;;;14.27;;
41677;SDS011;27364;49.026;8.712;2022-08-19T06:32:02;16.50;;;14.23;;
41677;SDS011;27364;49.026;8.712;2022-08-19T06:34:29;17.83;;;14.63;;
41677;SDS011;27364;49.026;8.712;2022-08-19T06:36:58;15.73;;;13.85;;
41677;SDS011;27364;49.026;8.712;2022-08-19T06:39:27;16.48;;;13.88;;
41677;SDS011;27364;49.026;8.712;2022-08-19T06:41:55;16.02;;;13.35;;
41677;SDS011;27364;49.026;8.712;2022-08-19T06:44:24;15.23;;;13.40;;
41677;SDS011;27364;49.026;8.712;2022-08-19T06:46:52;15.55;;;13.50;;
41677;SDS011;27364;49.026;8.712;2022-08-19T06:49:18;15.07;;;13.27;;
41677;SDS011;27364;49.026;8.712;2022-08-19T06:51:44;15.07;;;13.25;;
41677;SDS011;27364;49.026;8.712;2022-08-19T06:54:14;16.95;;;13.45;;
41677;SDS011;27364;49.026;8.712;2022-08-19T06:56:41;16.45;;;13.90;;
41677;SDS011;27364;49.026;8.712;2022-08-19T06:59:12;15.40;;;13.23;;
41677;SDS011;27364;49.026;8.712;2022-08-19T07:01:40;14.75;;;12.73;;
41677;SDS011;27364;49.026;8.712;2022-08-19T07:04:08;14.65;;;13.05;;
41677;SDS011;27364;49.026;8.712;2022-08-19T07:06:34;16.80;;;13.38;;
41677;SDS011;27364;49.026;8.712;2022-08-19T07:09:02;18.95;;;13.55;;
41677;SDS011;27364;49.026;8.712;2022-08-19T07:13:55;15.82;;;12.98;;
41677;SDS011;27364;49.026;8.712;2022-08-19T07:16:20;16.73;;;13.45;;
41677;SDS011;27364;49.026;8.712;2022-08-19T07:18:47;18.75;;;13.40;;
41677;SDS011;27364;49.026;8.712;2022-08-19T07:23:44;14.98;;;13.38;;
41677;SDS011;27364;49.026;8.712;2022-08-19T07:28:39;15.48;;;12.38;;
41677;SDS011;27364;49.026;8.712;2022-08-19T07:31:06;15.85;;;12.98;;
41677;SDS011;27364;49.026;8.712;2022-08-19T07:33:32;14.23;;;12.73;;
41677;SDS011;27364;49.026;8.712;2022-08-19T07:36:00;14.95;;;12.35;;
41677;SDS011;27364;49.026;8.712;2022-08-19T07:38:26;16.33;;;14.02;;
41677;SDS011;27364;49.026;8.712;2022-08-19T07:40:51;15.57;;;12.77;;
41677;SDS011;27364;49.026;8.712;2022-08-19T07:43:18;14.48;;;12.32;;
41677;SDS011;27364;49.026;8.712;2022-08-19T07:45:45;17.73;;;12.80;;
41677;SDS011;27364;49.026;8.712;2022-08-19T07:48:11;14.70;;;12.10;;
41677;SDS011;27364;49.026;8.712;2022-08-19T07:50:37;14.13;;;12.00;;
41677;SDS011;27364;49.026;8.712;2022-08-19T07:53:03;12.93;;;11.23;;
41677;SDS011;27364;49.026;8.712;2022-08-19T07:55:28;15.95;;;11.80;;
41677;SDS011;27364;49.026;8.712;2022-08-19T07:57:54;16.63;;;12.82;;
41677;SDS011;27364;49.026;8.712;2022-08-19T08:00:20;15.10;;;12.32;;
41677;SDS011;27364;49.026;8.712;2022-08-19T08:02:46;17.73;;;11.75;;
41677;SDS011;27364;49.026;8.712;2022-08-19T08:05:11;14.65;;;11.48;;
41677;SDS011;27364;49.026;8.712;2022-08-19T08:07:56;14.57;;;12.07;;
41677;SDS011;27364;49.026;8.712;2022-08-19T08:10:40;13.57;;;11.18;;
41677;SDS011;27364;49.026;8.712;2022-08-19T08:13:06;14.02;;;11.80;;
41677;SDS011;27364;49.026;8.712;2022-08-19T08:15:31;13.75;;;11.63;;
41677;SDS011;27364;49.026;8.712;2022-08-19T08:17:57;12.27;;;10.75;;
41677;SDS011;27364;49.026;8.712;2022-08-19T08:20:24;12.65;;;10.93;;
41677;SDS011;27364;49.026;8.712;2022-08-19T08:22:49;13.70;;;10.67;;
41677;SDS011;27364;49.026;8.712;2022-08-19T08:25:34;14.50;;;10.98;;
41677;SDS011;27364;49.026;8.712;2022-08-19T08:28:01;13.90;;;10.37;;
41677;SDS011;27364;49.026;8.712;2022-08-19T08:30:28;12.60;;;10.00;;
41677;SDS011;27364;49.026;8.712;2022-08-19T08:32:55;12.57;;;9.98;;
41677;SDS011;27364;49.026;8.712;2022-08-19T08:35:21;13.93;;;10.25;;
41677;SDS011;27364;49.026;8.712;2022-08-19T08:37:49;11.50;;;9.13;;
41677;SDS011;27364;49.026;8.712;2022-08-19T08:43:11;13.77;;;9.32;;
41677;SDS011;27364;49.026;8.712;2022-08-19T08:51:29;11.98;;;8.13;;
41677;SDS011;27364;49.026;8.712;2022-08-19T08:53:59;11.07;;;8.35;;
41677;SDS011;27364;49.026;8.712;2022-08-19T08:56:26;9.35;;;7.78;;
41677;SDS011;27364;49.026;8.712;2022-08-19T08:59:00;11.90;;;8.73;;
41677;SDS011;27364;49.026;8.712;2022-08-19T09:01:33;11.63;;;8.60;;
41677;SDS011;27364;49.026;8.712;2022-08-19T09:03:59;12.05;;;9.35;;
41677;SDS011;27364;49.026;8.712;2022-08-19T09:11:46;10.57;;;7.25;;
41677;SDS011;27364;49.026;8.712;2022-08-19T09:19:52;15.88;;;8.18;;
41677;SDS011;27364;49.026;8.712;2022-08-19T09:22:21;10.10;;;8.10;;
41677;SDS011;27364;49.026;8.712;2022-08-19T09:24:48;9.85;;;7.53;;
41677;SDS011;27364;49.026;8.712;2022-08-19T09:27:17;9.52;;;7.18;;
41677;SDS011;27364;49.026;8.712;2022-08-19T09:29:43;10.82;;;7.18;;
41677;SDS011;27364;49.026;8.712;2022-08-19T09:32:08;8.18;;;6.70;;
41677;SDS011;27364;49.026;8.712;2022-08-19T09:34:34;8.05;;;6.53;;
41677;SDS011;27364;49.026;8.712;2022-08-19T09:36:59;9.32;;;5.88;;
41677;SDS011;27364;49.026;8.712;2022-08-19T09:39:25;9.00;;;6.38;;
41677;SDS011;27364;49.026;8.712;2022-08-19T09:41:50;7.22;;;6.20;;
41677;SDS011;27364;49.026;8.712;2022-08-19T09:44:16;8.15;;;5.65;;
41677;SDS011;27364;49.026;8.712;2022-08-19T09:46:42;8.30;;;6.35;;
41677;SDS011;27364;49.026;8.712;2022-08-19T09:49:08;10.13;;;6.13;;
41677;SDS011;27364;49.026;8.712;2022-08-19T09:51:33;9.93;;;7.07;;
41677;SDS011;27364;49.026;8.712;2022-08-19T09:56:27;6.80;;;4.65;;
41677;SDS011;27364;49.026;8.712;2022-08-19T09:58:54;6.90;;;5.30;;
41677;SDS011;27364;49.026;8.712;2022-08-19T10:01:20;8.25;;;5.40;;
41677;SDS011;27364;49.026;8.712;2022-08-19T10:03:53;9.60;;;4.93;;
41677;SDS011;27364;49.026;8.712;2022-08-19T10:06:20;7.05;;;4.63;;
41677;SDS011;27364;49.026;8.712;2022-08-19T10:08:48;7.10;;;5.13;;
41677;SDS011;27364;49.026;8.712;2022-08-19T10:11:15;7.38;;;5.40;;
41677;SDS011;27364;49.026;8.712;2022-08-19T10:13:42;7.75;;;5.45;;
41677;SDS011;27364;49.026;8.712;2022-08-19T10:16:10;8.93;;;4.78;;
41677;SDS011;27364;49.026;8.712;2022-08-19T10:18:37;5.93;;;4.45;;
41677;SDS011;27364;49.026;8.712;2022-08-19T10:21:11;6.38;;;5.05;;
41677;SDS011;27364;49.026;8.712;2022-08-19T10:23:41;5.78;;;4.43;;
41677;SDS011;27364;49.026;8.712;2022-08-19T10:26:10;6.25;;;4.80;;
41677;SDS011;27364;49.026;8.712;2022-08-19T10:28:37;8.45;;;4.63;;
41677;SDS011;27364;49.026;8.712;2022-08-19T10:31:04;6.72;;;4.55;;
41677;SDS011;27364;49.026;8.712;2022-08-19T10:33:31;5.72;;;4.25;;
41677;SDS011;27364;49.026;8.712;2022-08-19T10:36:03;4.85;;;3.53;;
41677;SDS011;27364;49.026;8.712;2022-08-19T10:38:32;8.45;;;3.90;;
41677;SDS011;27364;49.026;8.712;2022-08-19T10:41:05;6.00;;;4.18;;
41677;SDS011;27364;49.026;8.712;2022-08-19T10:43:52;6.28;;;4.28;;
41677;SDS011;27364;49.026;8.712;2022-08-19T10:46:19;5.85;;;3.72;;
41677;SDS011;27364;49.026;8.712;2022-08-19T10:51:12;6.80;;;3.92;;
41677;SDS011;27364;49.026;8.712;2022-08-19T10:53:57;5.78;;;3.83;;
41677;SDS011;27364;49.026;8.712;2022-08-19T10:56:23;6.65;;;4.10;;
41677;SDS011;27364;49.026;8.712;2022-08-19T10:59:08;6.75;;;4.28;;
41677;SDS011;27364;49.026;8.712;2022-08-19T11:01:34;5.32;;;4.15;;
41677;SDS011;27364;49.026;8.712;2022-08-19T11:04:01;5.57;;;4.10;;
41677;SDS011;27364;49.026;8.712;2022-08-19T11:06:29;6.43;;;4.10;;
41677;SDS011;27364;49.026;8.712;2022-08-19T11:08:57;7.05;;;4.10;;
41677;SDS011;27364;49.026;8.712;2022-08-19T11:11:23;5.00;;;3.83;;
41677;SDS011;27364;49.026;8.712;2022-08-19T11:13:48;4.50;;;3.63;;
41677;SDS011;27364;49.026;8.712;2022-08-19T11:16:24;5.95;;;4.10;;
41677;SDS011;27364;49.026;8.712;2022-08-19T11:18:52;5.65;;;3.72;;
41677;SDS011;27364;49.026;8.712;2022-08-19T11:21:26;6.00;;;4.05;;
41677;SDS011;27364;49.026;8.712;2022-08-19T11:24:00;5.20;;;3.97;;
41677;SDS011;27364;49.026;8.712;2022-08-19T11:26:29;6.47;;;4.20;;
41677;SDS011;27364;49.026;8.712;2022-08-19T11:28:56;5.40;;;4.07;;
41677;SDS011;27364;49.026;8.712;2022-08-19T11:31:23;6.20;;;4.20;;
41677;SDS011;27364;49.026;8.712;2022-08-19T11:33:52;8.57;;;4.63;;
41677;SDS011;27364;49.026;8.712;2022-08-19T11:36:19;6.65;;;4.63;;
41677;SDS011;27364;49.026;8.712;2022-08-19T11:38:46;5.75;;;4.50;;
41677;SDS011;27364;49.026;8.712;2022-08-19T11:41:16;6.40;;;4.30;;
41677;SDS011;27364;49.026;8.712;2022-08-19T11:43:43;5.55;;;4.20;;
41677;SDS011;27364;49.026;8.712;2022-08-19T11:46:10;5.78;;;4.18;;
41677;SDS011;27364;49.026;8.712;2022-08-19T11:48:36;6.03;;;3.90;;
41677;SDS011;27364;49.026;8.712;2022-08-19T11:51:03;6.78;;;4.60;;
41677;SDS011;27364;49.026;8.712;2022-08-19T11:53:31;5.72;;;4.25;;
41677;SDS011;27364;49.026;8.712;2022-08-19T11:55:57;5.95;;;3.72;;
41677;SDS011;27364;49.026;8.712;2022-08-19T11:58:23;4.95;;;4.00;;
41677;SDS011;27364;49.026;8.712;2022-08-19T12:00:50;5.78;;;3.70;;
41677;SDS011;27364;49.026;8.712;2022-08-19T12:03:16;4.97;;;3.63;;
41677;SDS011;27364;49.026;8.712;2022-08-19T12:05:43;5.32;;;3.63;;
41677;SDS011;27364;49.026;8.712;2022-08-19T12:08:08;5.80;;;4.05;;
41677;SDS011;27364;49.026;8.712;2022-08-19T12:10:34;5.10;;;4.15;;
41677;SDS011;27364;49.026;8.712;2022-08-19T12:13:00;5.72;;;4.25;;
41677;SDS011;27364;49.026;8.712;2022-08-19T12:15:26;6.65;;;4.30;;
41677;SDS011;27364;49.026;8.712;2022-08-19T12:17:54;5.75;;;4.00;;
41677;SDS011;27364;49.026;8.712;2022-08-19T12:20:22;5.25;;;3.92;;
41677;SDS011;27364;49.026;8.712;2022-08-19T12:22:48;6.53;;;3.88;;
41677;SDS011;27364;49.026;8.712;2022-08-19T12:25:15;5.57;;;3.88;;
41677;SDS011;27364;49.026;8.712;2022-08-19T12:27:41;5.50;;;4.15;;
41677;SDS011;27364;49.026;8.712;2022-08-19T12:30:08;4.63;;;3.60;;
41677;SDS011;27364;49.026;8.712;2022-08-19T12:32:36;4.20;;;3.50;;
41677;SDS011;27364;49.026;8.712;2022-08-19T12:35:03;5.20;;;3.85;;
41677;SDS011;27364;49.026;8.712;2022-08-19T12:37:29;5.88;;;3.97;;
41677;SDS011;27364;49.026;8.712;2022-08-19T12:39:56;6.82;;;4.10;;
41677;SDS011;27364;49.026;8.712;2022-08-19T12:42:22;5.53;;;4.20;;
41677;SDS011;27364;49.026;8.712;2022-08-19T12:44:47;5.07;;;3.85;;
41677;SDS011;27364;49.026;8.712;2022-08-19T12:47:13;6.93;;;4.38;;
41677;SDS011;27364;49.026;8.712;2022-08-19T12:49:39;5.50;;;4.20;;
41677;SDS011;27364;49.026;8.712;2022-08-19T12:52:05;5.83;;;4.40;;
41677;SDS011;27364;49.026;8.712;2022-08-19T12:54:33;4.68;;;3.88;;
41677;SDS011;27364;49.026;8.712;2022-08-19T12:57:00;6.85;;;4.45;;
41677;SDS011;27364;49.026;8.712;2022-08-19T12:59:30;4.88;;;3.90;;
41677;SDS011;27364;49.026;8.712;2022-08-19T13:01:55;4.43;;;3.80;;
41677;SDS011;27364;49.026;8.712;2022-08-19T13:04:22;5.28;;;4.20;;
41677;SDS011;27364;49.026;8.712;2022-08-19T13:06:47;4.70;;;3.90;;
41677;SDS011;27364;49.026;8.712;2022-08-19T13:09:13;5.78;;;4.40;;
41677;SDS011;27364;49.026;8.712;2022-08-19T13:11:38;4.63;;;3.47;;
41677;SDS011;27364;49.026;8.712;2022-08-19T13:14:04;5.40;;;4.03;;
41677;SDS011;27364;49.026;8.712;2022-08-19T13:16:30;4.93;;;3.78;;
41677;SDS011;27364;49.026;8.712;2022-08-19T13:18:57;6.30;;;3.85;;
41677;SDS011;27364;49.026;8.712;2022-08-19T13:21:23;5.07;;;3.87;;
41677;SDS011;27364;49.026;8.712;2022-08-19T13:23:52;4.90;;;3.90;;
41677;SDS011;27364;49.026;8.712;2022-08-19T13:26:18;6.10;;;3.60;;
41677;SDS011;27364;49.026;8.712;2022-08-19T13:28:44;4.30;;;3.47;;
41677;SDS011;27364;49.026;8.712;2022-08-19T13:31:30;4.25;;;3.58;;
41677;SDS011;27364;49.026;8.712;2022-08-19T13:34:16;5.57;;;4.03;;
41677;SDS011;27364;49.026;8.712;2022-08-19T13:36:44;5.40;;;4.40;;
41677;SDS011;27364;49.026;8.712;2022-08-19T13:39:10;4.70;;;4.00;;
41677;SDS011;27364;49.026;8.712;2022-08-19T13:41:36;4.97;;;4.30;;
41677;SDS011;27364;49.026;8.712;2022-08-19T13:44:07;6.03;;;4.13;;
41677;SDS011;27364;49.026;8.712;2022-08-19T13:46:33;5.63;;;4.65;;
41677;SDS011;27364;49.026;8.712;2022-08-19T13:48:59;5.85;;;5.05;;
41677;SDS011;27364;49.026;8.712;2022-08-19T13:51:24;5.70;;;4.70;;
41677;SDS011;27364;49.026;8.712;2022-08-19T13:53:50;5.25;;;4.75;;
41677;SDS011;27364;49.026;8.712;2022-08-19T13:56:16;5.97;;;4.93;;
41677;SDS011;27364;49.026;8.712;2022-08-19T13:58:44;8.57;;;4.57;;
41677;SDS011;27364;49.026;8.712;2022-08-19T14:01:10;6.03;;;4.25;;
41677;SDS011;27364;49.026;8.712;2022-08-19T14:03:36;5.45;;;4.78;;
41677;SDS011;27364;49.026;8.712;2022-08-19T14:06:02;7.20;;;4.57;;
41677;SDS011;27364;49.026;8.712;2022-08-19T14:08:28;5.82;;;4.65;;
41677;SDS011;27364;49.026;8.712;2022-08-19T14:10:55;5.47;;;4.95;;
41677;SDS011;27364;49.026;8.712;2022-08-19T14:13:21;5.70;;;4.67;;
41677;SDS011;27364;49.026;8.712;2022-08-19T14:18:15;5.07;;;4.07;;
41677;SDS011;27364;49.026;8.712;2022-08-19T14:20:42;5.43;;;3.95;;
41677;SDS011;27364;49.026;8.712;2022-08-19T14:23:08;4.60;;;3.67;;
41677;SDS011;27364;49.026;8.712;2022-08-19T14:25:33;5.53;;;4.25;;
41677;SDS011;27364;49.026;8.712;2022-08-19T14:28:00;4.50;;;4.10;;
41677;SDS011;27364;49.026;8.712;2022-08-19T14:30:27;5.18;;;4.28;;
41677;SDS011;27364;49.026;8.712;2022-08-19T14:32:55;4.95;;;3.83;;
41677;SDS011;27364;49.026;8.712;2022-08-19T14:35:23;5.50;;;4.38;;
41677;SDS011;27364;49.026;8.712;2022-08-19T14:37:49;6.80;;;4.30;;
41677;SDS011;27364;49.026;8.712;2022-08-19T14:40:16;5.35;;;4.30;;
41677;SDS011;27364;49.026;8.712;2022-08-19T14:42:46;6.00;;;3.92;;
41677;SDS011;27364;49.026;8.712;2022-08-19T14:45:14;6.60;;;3.80;;
41677;SDS011;27364;49.026;8.712;2022-08-19T14:47:39;4.65;;;3.85;;
41677;SDS011;27364;49.026;8.712;2022-08-19T14:50:06;6.32;;;3.50;;
41677;SDS011;27364;49.026;8.712;2022-08-19T14:52:33;5.40;;;3.58;;
41677;SDS011;27364;49.026;8.712;2022-08-19T14:54:59;3.95;;;3.25;;
41677;SDS011;27364;49.026;8.712;2022-08-19T14:57:25;4.88;;;3.38;;
41677;SDS011;27364;49.026;8.712;2022-08-19T14:59:50;4.07;;;3.20;;
41677;SDS011;27364;49.026;8.712;2022-08-19T15:02:16;3.67;;;3.00;;
41677;SDS011;27364;49.026;8.712;2022-08-19T15:04:41;3.97;;;3.35;;
41677;SDS011;27364;49.026;8.712;2022-08-19T15:07:07;3.85;;;3.25;;
41677;SDS011;27364;49.026;8.712;2022-08-19T15:09:33;4.85;;;3.40;;
41677;SDS011;27364;49.026;8.712;2022-08-19T15:11:59;4.85;;;3.38;;
41677;SDS011;27364;49.026;8.712;2022-08-19T15:14:26;4.47;;;2.90;;
41677;SDS011;27364;49.026;8.712;2022-08-19T15:16:53;3.63;;;2.90;;
41677;SDS011;27364;49.026;8.712;2022-08-19T15:19:18;5.18;;;3.17;;